PWSweather.com
Personal Weather Stations
Station Observations
ISTOCKPO4
Cheadle HulmeGB SK8 6NZ

Cheadle HulmeGB SK8 6NZ

Lat: 53.363783, Lon: -2.1948438

Elevation: 261

Station Type: Davis VP2 with Daytime FARS

http://www.cheadlehulmeweather.co.uk

Latest ConditionsUpdated 6:00:04 PM GMT Tuesday, Nov 12, 2019
Currently Today's Max Today's Min Today's Average
Temperature 46.8°F8.2°C 47.7°F8.7°C 40.8°F4.9°C 43.9°F6.6°C
Dew Point 42.2°F5.7°C 44.5°F6.9°C 39.0°F3.9°C 41.1°F5.1°C
Winds 8.0 mph NW12.9 kmh NW 14.0 mph -22.5 kmh - - 8.1 mph 13.0 kmh
Wind Gusts 17.0 mph27.4 kmh 29.0 mph46.7 kmh - -
Humidity 84% 95% 83% 90%
Pressure 29.45 in997.3 mb 29.45 in997.3 mb 29.28 in991.5 mb -
Precipitation - 0.38 in9.7 mm - -
Hour Temp Dew Point Humidity Winds Wind Gusts Pressure Precip Precip Rate Daily Precip Total
06:00 PM 46.8°F8.2°C 42.2°F5.7°C 84% 8.0 mph NW12.9 kmh NW 17.0 mph27.4 kmh 29.45 in997.3 mb 0.00 in0.0 mm 0.00 in0.0 mm 0.38 in9.7 mm
05:45 PM 46.8°F8.2°C 41.9°F5.5°C 83% 10.0 mph NW16.1 kmh NW 17.0 mph27.4 kmh 29.45 in997.3 mb 0.00 in0.0 mm 0.00 in0.0 mm 0.38 in9.7 mm
05:30 PM 46.9°F8.3°C 42.0°F5.6°C 83% 9.0 mph NW14.5 kmh NW 15.0 mph24.1 kmh 29.44 in997.0 mb 0.00 in0.0 mm 0.00 in0.0 mm 0.38 in9.7 mm
05:15 PM 46.9°F8.3°C 42.0°F5.6°C 83% 9.0 mph NW14.5 kmh NW 18.0 mph29.0 kmh 29.44 in997.0 mb 0.00 in0.0 mm 0.00 in0.0 mm 0.38 in9.7 mm
05:00 PM 46.9°F8.3°C 42.4°F5.8°C 84% 9.0 mph NW14.5 kmh NW 17.0 mph27.4 kmh 29.43 in996.6 mb 0.00 in0.0 mm 0.00 in0.0 mm 0.38 in9.7 mm
04:45 PM 47.1°F8.4°C 42.2°F5.7°C 83% 9.0 mph WNW14.5 kmh WNW 18.0 mph29.0 kmh 29.42 in996.3 mb 0.00 in0.0 mm 0.00 in0.0 mm 0.38 in9.7 mm
04:30 PM 47.1°F8.4°C 42.2°F5.7°C 83% 10.0 mph NW16.1 kmh NW 16.0 mph25.7 kmh 29.42 in996.3 mb 0.00 in0.0 mm 0.00 in0.0 mm 0.38 in9.7 mm
04:15 PM 47.1°F8.4°C 42.2°F5.7°C 83% 9.0 mph NW14.5 kmh NW 18.0 mph29.0 kmh 29.41 in995.9 mb 0.00 in0.0 mm 0.00 in0.0 mm 0.38 in9.7 mm
04:00 PM 47.3°F8.5°C 42.7°F5.9°C 84% 10.0 mph NW16.1 kmh NW 18.0 mph29.0 kmh 29.40 in995.6 mb 0.00 in0.0 mm 0.00 in0.0 mm 0.38 in9.7 mm
03:45 PM 47.3°F8.5°C 42.7°F5.9°C 84% 10.0 mph NW16.1 kmh NW 17.0 mph27.4 kmh 29.39 in995.3 mb 0.00 in0.0 mm 0.00 in0.0 mm 0.38 in9.7 mm
03:30 PM 47.5°F8.6°C 42.9°F6.1°C 84% 10.0 mph NW16.1 kmh NW 17.0 mph27.4 kmh 29.38 in994.9 mb 0.00 in0.0 mm 0.00 in0.0 mm 0.38 in9.7 mm
03:15 PM 47.7°F8.7°C 42.8°F6.0°C 83% 10.0 mph NW16.1 kmh NW 17.0 mph27.4 kmh 29.38 in994.9 mb 0.00 in0.0 mm 0.00 in0.0 mm 0.38 in9.7 mm
03:00 PM 47.7°F8.7°C 43.1°F6.2°C 84% 11.0 mph NW17.7 kmh NW 17.0 mph27.4 kmh 29.37 in994.6 mb 0.00 in0.0 mm 0.00 in0.0 mm 0.38 in9.7 mm
02:45 PM 47.5°F8.6°C 42.9°F6.1°C 84% 11.0 mph NW17.7 kmh NW 22.0 mph35.4 kmh 29.36 in994.2 mb 0.00 in0.0 mm 0.00 in0.0 mm 0.38 in9.7 mm
02:30 PM 47.1°F8.4°C 43.1°F6.2°C 86% 9.0 mph NW14.5 kmh NW 17.0 mph27.4 kmh 29.36 in994.2 mb 0.00 in0.0 mm 0.00 in0.0 mm 0.38 in9.7 mm
02:15 PM 46.6°F8.1°C 42.9°F6.1°C 87% 8.0 mph NW12.9 kmh NW 15.0 mph24.1 kmh 29.36 in994.2 mb 0.00 in0.0 mm 0.00 in0.0 mm 0.38 in9.7 mm
02:00 PM 46.2°F7.9°C 42.6°F5.9°C 87% 8.0 mph NW12.9 kmh NW 18.0 mph29.0 kmh 29.35 in993.9 mb 0.00 in0.0 mm 0.00 in0.0 mm 0.38 in9.7 mm
01:45 PM 46.0°F7.8°C 42.4°F5.8°C 87% 7.0 mph NW11.3 kmh NW 16.0 mph25.7 kmh 29.35 in993.9 mb 0.00 in0.0 mm 0.00 in0.0 mm 0.38 in9.7 mm
01:30 PM 46.2°F7.9°C 42.6°F5.9°C 87% 8.0 mph NW12.9 kmh NW 15.0 mph24.1 kmh 29.35 in993.9 mb 0.00 in0.0 mm 0.00 in0.0 mm 0.38 in9.7 mm
01:15 PM 46.0°F7.8°C 42.1°F5.6°C 86% 10.0 mph NW16.1 kmh NW 16.0 mph25.7 kmh 29.34 in993.6 mb 0.00 in0.0 mm 0.00 in0.0 mm 0.38 in9.7 mm
01:00 PM 46.2°F7.9°C 42.6°F5.9°C 87% 10.0 mph NW16.1 kmh NW 19.0 mph30.6 kmh 29.33 in993.2 mb 0.00 in0.0 mm 0.00 in0.0 mm 0.38 in9.7 mm
12:45 PM 45.3°F7.4°C 41.4°F5.2°C 86% 12.0 mph NW19.3 kmh NW 25.0 mph40.2 kmh 29.32 in992.9 mb 0.00 in0.0 mm 0.00 in0.0 mm 0.38 in9.7 mm
12:30 PM 46.0°F7.8°C 42.1°F5.6°C 86% 14.0 mph NW22.5 kmh NW 27.0 mph43.5 kmh 29.31 in992.6 mb 0.00 in0.0 mm 0.00 in0.0 mm 0.38 in9.7 mm
12:15 PM 46.2°F7.9°C 43.2°F6.2°C 89% 10.0 mph NW16.1 kmh NW 17.0 mph27.4 kmh 29.31 in992.6 mb 0.00 in0.0 mm 0.00 in0.0 mm 0.38 in9.7 mm
12:00 PM 46.6°F8.1°C 43.8°F6.6°C 90% 10.0 mph WNW16.1 kmh WNW 19.0 mph30.6 kmh 29.31 in992.6 mb 0.00 in0.0 mm 0.00 in0.0 mm 0.38 in9.7 mm
11:45 AM 46.6°F8.1°C 44.4°F6.9°C 92% 8.0 mph WNW12.9 kmh WNW 16.0 mph25.7 kmh 29.30 in992.2 mb 0.00 in0.0 mm 0.00 in0.0 mm 0.38 in9.7 mm
11:30 AM 46.4°F8.0°C 44.5°F6.9°C 93% 7.0 mph WNW11.3 kmh WNW 15.0 mph24.1 kmh 29.30 in992.2 mb 0.00 in0.0 mm 0.00 in0.0 mm 0.38 in9.7 mm
11:15 AM 45.7°F7.6°C 43.8°F6.6°C 93% 8.0 mph WNW12.9 kmh WNW 15.0 mph24.1 kmh 29.29 in991.9 mb 0.01 in0.3 mm 0.00 in0.0 mm 0.38 in9.7 mm
11:00 AM 45.3°F7.4°C 43.7°F6.5°C 94% 8.0 mph WNW12.9 kmh WNW 15.0 mph24.1 kmh 29.30 in992.2 mb 0.01 in0.3 mm 0.00 in0.0 mm 0.38 in9.7 mm
10:45 AM 45.1°F7.3°C 43.5°F6.4°C 94% 8.0 mph W12.9 kmh W 13.0 mph20.9 kmh 29.30 in992.2 mb 0.01 in0.3 mm 0.00 in0.0 mm 0.38 in9.7 mm
10:30 AM 45.1°F7.3°C 43.5°F6.4°C 94% 9.0 mph WNW14.5 kmh WNW 14.0 mph22.5 kmh 29.30 in992.2 mb 0.01 in0.3 mm 0.04 in1.0 mm 0.38 in9.7 mm
10:15 AM 45.1°F7.3°C 43.5°F6.4°C 94% 8.0 mph WNW12.9 kmh WNW 14.0 mph22.5 kmh 29.29 in991.9 mb 0.00 in0.0 mm 0.00 in0.0 mm 0.37 in9.4 mm
10:00 AM 44.8°F7.1°C 43.2°F6.2°C 94% 8.0 mph WNW12.9 kmh WNW 14.0 mph22.5 kmh 29.29 in991.9 mb 0.00 in0.0 mm 0.00 in0.0 mm 0.37 in9.4 mm
09:45 AM 44.4°F6.9°C 43.1°F6.2°C 95% 9.0 mph W14.5 kmh W 19.0 mph30.6 kmh 29.29 in991.9 mb 0.03 in0.8 mm 0.00 in0.0 mm 0.37 in9.4 mm
09:30 AM 44.2°F6.8°C 42.9°F6.1°C 95% 11.0 mph W17.7 kmh W 22.0 mph35.4 kmh 29.29 in991.9 mb 0.05 in1.3 mm 0.00 in0.0 mm 0.37 in9.4 mm
09:15 AM 43.3°F6.3°C 42.0°F5.6°C 95% 9.0 mph W14.5 kmh W 17.0 mph27.4 kmh 29.28 in991.5 mb 0.09 in2.3 mm 0.00 in0.0 mm 0.37 in9.4 mm
09:00 AM 42.1°F5.6°C 40.5°F4.7°C 94% 2.0 mph SW3.2 kmh SW 8.0 mph12.9 kmh 29.29 in991.9 mb 0.11 in2.8 mm 0.00 in0.0 mm 0.37 in9.4 mm
08:45 AM 41.9°F5.5°C 40.3°F4.6°C 94% 6.0 mph SW9.7 kmh SW 14.0 mph22.5 kmh 29.29 in991.9 mb 0.12 in3.0 mm 0.00 in0.0 mm 0.34 in8.6 mm
08:30 AM 41.7°F5.4°C 40.1°F4.5°C 94% 6.0 mph WSW9.7 kmh WSW 16.0 mph25.7 kmh 29.29 in991.9 mb 0.16 in4.1 mm 0.00 in0.0 mm 0.31 in7.9 mm
08:15 AM 41.5°F5.3°C 39.7°F4.3°C 93% 7.0 mph WSW11.3 kmh WSW 16.0 mph25.7 kmh 29.29 in991.9 mb 0.17 in4.3 mm 0.04 in1.0 mm 0.28 in7.1 mm
08:00 AM 41.5°F5.3°C 39.7°F4.3°C 93% 10.0 mph WSW16.1 kmh WSW 29.0 mph46.7 kmh 29.29 in991.9 mb 0.16 in4.1 mm 0.07 in1.8 mm 0.26 in6.6 mm
07:45 AM 41.5°F5.3°C 39.4°F4.1°C 92% 9.0 mph WSW14.5 kmh WSW 24.0 mph38.6 kmh 29.30 in992.2 mb 0.11 in2.8 mm 0.24 in6.1 mm 0.21 in5.3 mm
07:30 AM 41.7°F5.4°C 39.3°F4.1°C 91% 10.0 mph WSW16.1 kmh WSW 18.0 mph29.0 kmh 29.29 in991.9 mb 0.05 in1.3 mm 0.12 in3.0 mm 0.15 in3.8 mm
07:15 AM 42.1°F5.6°C 39.4°F4.1°C 90% 9.0 mph WSW14.5 kmh WSW 23.0 mph37.0 kmh 29.29 in991.9 mb 0.02 in0.5 mm 0.00 in0.0 mm 0.11 in2.8 mm
07:00 AM 42.1°F5.6°C 39.4°F4.1°C 90% 8.0 mph SW12.9 kmh SW 17.0 mph27.4 kmh 29.29 in991.9 mb 0.02 in0.5 mm 0.00 in0.0 mm 0.10 in2.5 mm
06:45 AM 42.1°F5.6°C 39.6°F4.2°C 91% 8.0 mph SW12.9 kmh SW 21.0 mph33.8 kmh 29.29 in991.9 mb 0.02 in0.5 mm 0.00 in0.0 mm 0.10 in2.5 mm
06:30 AM 42.1°F5.6°C 39.6°F4.2°C 91% 11.0 mph SW17.7 kmh SW 23.0 mph37.0 kmh 29.30 in992.2 mb 0.02 in0.5 mm 0.04 in1.0 mm 0.10 in2.5 mm
06:15 AM 41.9°F5.5°C 39.5°F4.2°C 91% 9.0 mph SW14.5 kmh SW 21.0 mph33.8 kmh 29.32 in992.9 mb 0.01 in0.3 mm 0.04 in1.0 mm 0.09 in2.3 mm
06:00 AM 42.1°F5.6°C 39.4°F4.1°C 90% 9.0 mph SW14.5 kmh SW 19.0 mph30.6 kmh 29.32 in992.9 mb 0.00 in0.0 mm 0.00 in0.0 mm 0.08 in2.0 mm
05:45 AM 42.1°F5.6°C 39.4°F4.1°C 90% 7.0 mph SW11.3 kmh SW 15.0 mph24.1 kmh 29.33 in993.2 mb 0.00 in0.0 mm 0.00 in0.0 mm 0.08 in2.0 mm
05:30 AM 42.3°F5.7°C 39.5°F4.2°C 90% 9.0 mph SW14.5 kmh SW 21.0 mph33.8 kmh 29.34 in993.6 mb 0.00 in0.0 mm 0.00 in0.0 mm 0.08 in2.0 mm
05:15 AM 42.1°F5.6°C 39.6°F4.2°C 91% 9.0 mph SW14.5 kmh SW 19.0 mph30.6 kmh 29.35 in993.9 mb 0.00 in0.0 mm 0.00 in0.0 mm 0.08 in2.0 mm
05:00 AM 41.9°F5.5°C 39.7°F4.3°C 92% 9.0 mph SW14.5 kmh SW 19.0 mph30.6 kmh 29.35 in993.9 mb 0.00 in0.0 mm 0.00 in0.0 mm 0.08 in2.0 mm
04:45 AM 41.7°F5.4°C 39.6°F4.2°C 92% 7.0 mph SW11.3 kmh SW 17.0 mph27.4 kmh 29.35 in993.9 mb 0.00 in0.0 mm 0.00 in0.0 mm 0.08 in2.0 mm
04:30 AM 41.5°F5.3°C 39.4°F4.1°C 92% 6.0 mph SW9.7 kmh SW 17.0 mph27.4 kmh 29.36 in994.2 mb 0.00 in0.0 mm 0.00 in0.0 mm 0.08 in2.0 mm
04:15 AM 41.5°F5.3°C 39.7°F4.3°C 93% 6.0 mph SW9.7 kmh SW 13.0 mph20.9 kmh 29.36 in994.2 mb 0.00 in0.0 mm 0.00 in0.0 mm 0.08 in2.0 mm
04:00 AM 41.5°F5.3°C 39.7°F4.3°C 93% 7.0 mph SSW11.3 kmh SSW 15.0 mph24.1 kmh 29.37 in994.6 mb 0.00 in0.0 mm 0.00 in0.0 mm 0.08 in2.0 mm
03:45 AM 41.4°F5.2°C 39.5°F4.2°C 93% 7.0 mph SSW11.3 kmh SSW 15.0 mph24.1 kmh 29.37 in994.6 mb 0.00 in0.0 mm 0.00 in0.0 mm 0.08 in2.0 mm
03:30 AM 41.4°F5.2°C 39.5°F4.2°C 93% 5.0 mph SW8.0 kmh SW 12.0 mph19.3 kmh 29.38 in994.9 mb 0.02 in0.5 mm 0.00 in0.0 mm 0.08 in2.0 mm
03:15 AM 41.4°F5.2°C 39.5°F4.2°C 93% 7.0 mph SW11.3 kmh SW 18.0 mph29.0 kmh 29.38 in994.9 mb 0.02 in0.5 mm 0.00 in0.0 mm 0.08 in2.0 mm
03:00 AM 41.2°F5.1°C 39.3°F4.1°C 93% 5.0 mph SW8.0 kmh SW 14.0 mph22.5 kmh 29.39 in995.3 mb 0.02 in0.5 mm 0.00 in0.0 mm 0.08 in2.0 mm
02:45 AM 41.2°F5.1°C 39.3°F4.1°C 93% 5.0 mph SW8.0 kmh SW 15.0 mph24.1 kmh 29.39 in995.3 mb 0.03 in0.8 mm 0.08 in2.0 mm 0.08 in2.0 mm
02:30 AM 40.8°F4.9°C 39.0°F3.9°C 93% 6.0 mph SW9.7 kmh SW 17.0 mph27.4 kmh 29.39 in995.3 mb 0.01 in0.3 mm 0.00 in0.0 mm 0.06 in1.5 mm
02:15 AM 41.2°F5.1°C 39.3°F4.1°C 93% 5.0 mph SW8.0 kmh SW 13.0 mph20.9 kmh 29.39 in995.3 mb 0.03 in0.8 mm 0.00 in0.0 mm 0.06 in1.5 mm
02:00 AM 41.2°F5.1°C 39.3°F4.1°C 93% 7.0 mph SW11.3 kmh SW 20.0 mph32.2 kmh 29.40 in995.6 mb 0.03 in0.8 mm 0.01 in0.3 mm 0.06 in1.5 mm
01:45 AM 41.0°F5.0°C 39.1°F3.9°C 93% 6.0 mph SW9.7 kmh SW 13.0 mph20.9 kmh 29.40 in995.6 mb 0.02 in0.5 mm 0.00 in0.0 mm 0.05 in1.3 mm
01:30 AM 41.2°F5.1°C 39.3°F4.1°C 93% 5.0 mph WSW8.0 kmh WSW 12.0 mph19.3 kmh 29.41 in995.9 mb 0.05 in1.3 mm 0.08 in2.0 mm 0.05 in1.3 mm
01:15 AM 41.4°F5.2°C 39.2°F4.0°C 92% 7.0 mph SW11.3 kmh SW 14.0 mph22.5 kmh 29.41 in995.9 mb 0.03 in0.8 mm 0.00 in0.0 mm 0.03 in0.8 mm
01:00 AM 41.4°F5.2°C 39.2°F4.0°C 92% 4.0 mph SW6.4 kmh SW 13.0 mph20.9 kmh 29.41 in995.9 mb 0.03 in0.8 mm 0.00 in0.0 mm 0.03 in0.8 mm
12:45 AM 41.7°F5.4°C 39.3°F4.1°C 91% 7.0 mph W11.3 kmh W 17.0 mph27.4 kmh 29.42 in996.3 mb 0.03 in0.8 mm 0.12 in3.0 mm 0.03 in0.8 mm
12:30 AM 41.7°F5.4°C 39.3°F4.1°C 91% 6.0 mph WSW9.7 kmh WSW 14.0 mph22.5 kmh 29.42 in996.3 mb 0.00 in0.0 mm 0.00 in0.0 mm 0.00 in0.0 mm
12:15 AM 41.7°F5.4°C 39.3°F4.1°C 91% 5.0 mph SW8.0 kmh SW 15.0 mph24.1 kmh 29.42 in996.3 mb 0.00 in0.0 mm 0.00 in0.0 mm 0.00 in0.0 mm
12:00 AM 41.7°F5.4°C 39.0°F3.9°C 90% 4.0 mph SW6.4 kmh SW 9.0 mph14.5 kmh 29.42 in996.3 mb 0.00 in0.0 mm 0.00 in0.0 mm 0.00 in0.0 mm